Time;durP1;ratioP1;P1;durP2;ratioP2;P2;SDS_P1;SDS_P2;PMS_P1;PMS_P2;Temp;Humidity;BMP_temperature;BMP_pressure;BME280_temperature;BME280_humidity;BME280_pressure;Samples;Min_cycle;Max_cycle;Signal;HPM_P1;HPM_P2
2020/12/19 00:00:07;;;;;;;2.65;0.98;;;19.40;44.30;;;;;;5054628;28;20028;-75
2020/12/19 00:02:32;;;;;;;2.17;1.80;;;19.30;44.10;;;;;;5036881;28;20036;-74
2020/12/19 00:04:58;;;;;;;0.60;0.50;;;19.30;44.30;;;;;;5053465;28;20029;-74
2020/12/19 00:07:30;;;;;;;0.45;0.45;;;19.30;44.40;;;;;;5035842;28;20064;-74
2020/12/19 00:09:56;;;;;;;5.43;2.10;;;19.30;44.80;;;;;;5036287;28;20043;-74
2020/12/19 00:12:21;;;;;;;2.88;1.40;;;19.30;44.10;;;;;;5052555;28;20021;-75
2020/12/19 00:14:47;;;;;;;4.13;0.70;;;19.30;44.00;;;;;;5036035;28;20027;-74
2020/12/19 00:17:13;;;;;;;1.77;0.70;;;19.30;44.10;;;;;;5055114;28;20029;-75
2020/12/19 00:19:39;;;;;;;3.67;1.70;;;19.30;44.00;;;;;;5020708;28;20040;-73
2020/12/19 00:22:06;;;;;;;3.72;1.00;;;19.30;43.90;;;;;;5037151;28;20044;-74
2020/12/19 00:24:32;;;;;;;1.10;0.63;;;19.20;43.80;;;;;;5033703;28;20033;-74
2020/12/19 00:26:57;;;;;;;3.50;1.70;;;19.20;43.70;;;;;;5015998;28;20080;-76
2020/12/19 00:29:23;;;;;;;1.83;0.77;;;19.20;43.60;;;;;;5015707;28;20072;-73
2020/12/19 00:31:48;;;;;;;1.70;0.90;;;19.20;43.60;;;;;;5033462;28;20083;-74
2020/12/19 00:34:16;;;;;;;0.90;0.75;;;19.20;43.60;;;;;;5015636;28;20073;-73
2020/12/19 00:36:42;;;;;;;1.40;0.85;;;19.20;43.60;;;;;;5033333;28;20030;-74
2020/12/19 00:39:07;;;;;;;2.25;0.90;;;19.20;43.50;;;;;;5019342;28;20442;-75
2020/12/19 00:41:33;;;;;;;2.67;1.65;;;19.20;43.50;;;;;;5053247;28;20029;-74
2020/12/19 00:43:59;;;;;;;1.63;1.05;;;19.10;43.40;;;;;;5032666;28;20065;-74
2020/12/19 00:46:24;;;;;;;3.22;1.52;;;19.10;43.50;;;;;;5016585;28;20025;-73
2020/12/19 00:48:50;;;;;;;0.55;0.43;;;19.10;43.40;;;;;;5033374;28;20111;-73
2020/12/19 00:51:17;;;;;;;0.93;0.73;;;19.10;43.40;;;;;;5015838;28;20025;-73
2020/12/19 00:53:42;;;;;;;5.45;2.72;;;19.10;43.40;;;;;;5015122;28;20033;-75
2020/12/19 00:56:25;;;;;;;0.10;0.10;;;19.10;43.40;;;;;;5030225;28;20032;-75
2020/12/19 00:58:51;;;;;;;1.20;0.70;;;19.10;43.50;;;;;;5035212;28;20067;-76
2020/12/19 01:01:17;;;;;;;0.85;0.55;;;19.10;43.50;;;;;;5017762;28;20574;-76
2020/12/19 01:03:43;;;;;;;0.32;0.32;;;19.00;43.40;;;;;;5035145;28;20017;-76
2020/12/19 01:06:09;;;;;;;3.40;1.08;;;19.00;43.40;;;;;;5033461;28;20039;-76
2020/12/19 01:08:53;;;;;;;2.10;1.38;;;19.00;43.40;;;;;;5017424;28;20191;-76
2020/12/19 01:11:20;;;;;;;1.67;1.10;;;19.00;43.50;;;;;;5034984;28;20040;-77
2020/12/19 01:13:46;;;;;;;2.95;1.15;;;19.00;43.50;;;;;;5034481;28;20025;-76
2020/12/19 01:16:30;;;;;;;0.60;0.60;;;19.00;43.40;;;;;;5018315;28;20033;-76
2020/12/19 01:18:57;;;;;;;2.80;1.35;;;19.00;43.50;;;;;;5018642;28;20070;-77
2020/12/19 01:21:25;;;;;;;0.73;0.73;;;18.90;43.40;;;;;;5034046;28;20025;-76
2020/12/19 01:23:51;;;;;;;1.73;0.88;;;19.00;43.50;;;;;;5034916;28;20090;-76
2020/12/19 01:26:16;;;;;;;1.38;0.55;;;18.90;43.40;;;;;;5034242;28;20425;-77
2020/12/19 01:28:42;;;;;;;1.90;1.52;;;18.90;43.30;;;;;;5036608;28;20435;-76
2020/12/19 01:31:10;;;;;;;1.63;1.02;;;19.00;43.40;;;;;;5034052;28;20539;-76
2020/12/19 01:33:35;;;;;;;1.02;0.63;;;19.00;44.00;;;;;;5036228;28;20463;-76
2020/12/19 01:36:01;;;;;;;1.33;0.70;;;18.90;43.30;;;;;;5029357;28;20025;-76
2020/12/19 01:38:27;;;;;;;3.72;1.20;;;18.90;43.20;;;;;;5036171;28;20083;-76
2020/12/19 01:40:54;;;;;;;6.40;0.88;;;18.90;43.20;;;;;;5035722;28;20523;-76
2020/12/19 01:43:20;;;;;;;1.55;1.13;;;18.90;43.20;;;;;;5035223;28;20025;-76
2020/12/19 01:45:47;;;;;;;3.75;1.52;;;18.90;43.20;;;;;;5018503;28;20480;-76
2020/12/19 01:48:22;;;;;;;5.85;2.40;;;18.90;43.20;;;;;;5017907;28;20500;-76
2020/12/19 01:50:48;;;;;;;1.27;0.90;;;18.90;43.10;;;;;;5033643;28;20109;-76
2020/12/19 01:53:18;;;;;;;2.95;1.95;;;18.90;43.20;;;;;;5001451;28;20514;-76
2020/12/19 01:55:43;;;;;;;4.05;2.20;;;18.90;43.20;;;;;;5033475;28;20033;-75
2020/12/19 01:58:15;;;;;;;4.05;2.63;;;18.90;43.20;;;;;;5053185;28;20519;-76
2020/12/19 02:00:41;;;;;;;3.45;1.25;;;18.90;43.20;;;;;;5026091;28;20412;-77
2020/12/19 02:03:07;;;;;;;1.50;1.40;;;18.90;43.20;;;;;;5028884;28;20041;-76
2020/12/19 02:05:33;;;;;;;4.57;2.17;;;18.90;43.20;;;;;;5039813;28;20033;-76
2020/12/19 02:08:00;;;;;;;1.17;0.70;;;19.00;43.30;;;;;;5038630;28;20056;-76
2020/12/19 02:10:26;;;;;;;5.10;1.80;;;18.90;43.30;;;;;;5020363;28;20386;-76
2020/12/19 02:12:51;;;;;;;1.48;1.30;;;19.00;43.30;;;;;;5038418;28;20067;-76
2020/12/19 02:15:17;;;;;;;3.13;1.38;;;18.90;43.30;;;;;;5055593;28;20029;-76
2020/12/19 02:17:43;;;;;;;3.22;2.45;;;18.90;43.40;;;;;;5038205;28;20041;-76
2020/12/19 02:20:08;;;;;;;1.55;0.90;;;19.00;43.50;;;;;;5055809;28;20041;-76
2020/12/19 02:22:34;;;;;;;1.27;1.00;;;18.90;43.50;;;;;;5055947;28;20496;-76
2020/12/19 02:25:00;;;;;;;5.25;2.65;;;19.00;43.60;;;;;;5022038;28;20466;-76
2020/12/19 02:27:25;;;;;;;5.68;2.38;;;19.00;43.60;;;;;;5024250;28;20511;-76
2020/12/19 02:29:51;;;;;;;2.03;1.30;;;19.00;43.60;;;;;;5030427;28;20412;-76
2020/12/19 02:32:16;;;;;;;2.38;1.63;;;19.00;44.00;;;;;;5056003;28;20049;-76
2020/12/19 02:34:42;;;;;;;1.88;0.80;;;19.00;43.70;;;;;;5033077;28;20485;-77
2020/12/19 02:37:07;;;;;;;2.17;0.90;;;18.90;43.60;;;;;;5032736;28;20463;-76
2020/12/19 02:39:33;;;;;;;2.65;1.50;;;18.90;43.60;;;;;;5038113;28;20114;-76
2020/12/19 02:41:58;;;;;;;2.95;1.63;;;18.90;43.70;;;;;;5036361;28;20191;-77
2020/12/19 02:44:24;;;;;;;4.30;2.50;;;18.90;43.80;;;;;;5030679;28;20038;-76
2020/12/19 02:46:49;;;;;;;1.50;1.15;;;18.90;44.40;;;;;;5052878;28;20025;-76
2020/12/19 02:49:15;;;;;;;1.95;1.30;;;18.90;43.80;;;;;;5028047;28;20115;-77
2020/12/19 02:51:41;;;;;;;1.83;0.57;;;18.90;43.80;;;;;;5022734;28;20385;-77
2020/12/19 02:54:06;;;;;;;0.30;0.30;;;18.90;43.80;;;;;;5020795;28;20045;-77
2020/12/19 02:56:32;;;;;;;1.13;0.57;;;18.90;43.80;;;;;;5026035;28;20448;-77
2020/12/19 02:58:57;;;;;;;5.30;3.10;;;18.80;43.70;;;;;;5017716;28;20475;-76
2020/12/19 03:01:29;;;;;;;7.35;1.67;;;18.80;43.70;;;;;;5050951;28;20031;-76
2020/12/19 03:03:55;;;;;;;1.30;0.98;;;18.90;43.80;;;;;;5021717;28;20070;-76
2020/12/19 03:06:21;;;;;;;2.00;0.63;;;18.80;43.70;;;;;;5036540;28;20114;-77
2020/12/19 03:08:47;;;;;;;0.70;0.50;;;18.80;43.60;;;;;;5035711;28;20045;-76
2020/12/19 03:11:12;;;;;;;2.83;1.20;;;18.80;43.60;;;;;;5054982;28;20492;-77
2020/12/19 03:13:38;;;;;;;0.55;0.55;;;18.80;43.60;;;;;;5052743;28;20083;-76
2020/12/19 03:16:03;;;;;;;0.63;0.40;;;18.80;43.60;;;;;;5037417;28;20086;-76
2020/12/19 03:18:29;;;;;;;0.47;0.47;;;18.80;43.60;;;;;;5036119;28;20025;-76
2020/12/19 03:20:54;;;;;;;2.35;0.90;;;18.80;44.20;;;;;;5051284;28;20063;-76
2020/12/19 03:23:20;;;;;;;2.95;1.60;;;18.80;43.60;;;;;;5043380;28;20032;-76
2020/12/19 03:25:47;;;;;;;4.15;0.63;;;18.70;44.20;;;;;;5017469;28;20108;-76
2020/12/19 03:28:12;;;;;;;0.43;0.43;;;18.70;43.50;;;;;;5031784;28;20029;-76
2020/12/19 03:30:38;;;;;;;0.30;0.25;;;18.70;43.50;;;;;;5054681;28;20408;-76
2020/12/19 03:33:03;;;;;;;0.30;0.30;;;18.70;43.60;;;;;;5036734;28;20077;-76
2020/12/19 03:35:29;;;;;;;1.23;1.00;;;18.70;43.50;;;;;;5037600;28;20045;-76
2020/12/19 03:37:55;;;;;;;1.85;0.77;;;18.70;43.50;;;;;;5037010;28;20078;-75
2020/12/19 03:40:20;;;;;;;2.80;1.58;;;18.70;43.50;;;;;;5042721;28;20037;-75
2020/12/19 03:42:46;;;;;;;1.88;0.75;;;18.70;43.60;;;;;;5054550;28;20032;-76
2020/12/19 03:45:15;;;;;;;3.72;1.20;;;18.70;43.50;;;;;;5059971;28;20490;-76
2020/12/19 03:47:40;;;;;;;1.45;1.00;;;18.70;43.50;;;;;;5062601;28;20029;-76
2020/12/19 03:50:06;;;;;;;0.98;0.60;;;18.70;43.50;;;;;;5036804;28;20098;-76
2020/12/19 03:52:31;;;;;;;3.17;1.90;;;18.70;43.60;;;;;;5054550;28;20040;-76
2020/12/19 03:54:57;;;;;;;1.33;0.90;;;18.70;43.60;;;;;;5039911;28;20492;-76
2020/12/19 03:57:38;;;;;;;4.13;2.38;;;18.70;43.60;;;;;;5073545;28;20078;-76
2020/12/19 04:00:04;;;;;;;1.30;0.93;;;18.70;43.70;;;;;;5074499;28;20024;-76
2020/12/19 04:02:30;;;;;;;2.55;1.25;;;18.70;44.20;;;;;;5056278;28;20078;-76
2020/12/19 04:04:55;;;;;;;7.32;3.80;;;18.60;43.70;;;;;;5073933;28;20028;-77
2020/12/19 04:07:21;;;;;;;0.93;0.68;;;18.60;43.70;;;;;;5074022;28;20029;-76
2020/12/19 04:09:46;;;;;;;4.53;2.67;;;18.60;43.70;;;;;;5073048;28;20515;-76
2020/12/19 04:12:13;;;;;;;1.23;1.05;;;18.60;43.70;;;;;;5072561;28;20035;-76
2020/12/19 04:14:39;;;;;;;1.58;0.90;;;18.60;43.70;;;;;;5073916;28;20021;-76
2020/12/19 04:17:09;;;;;;;4.47;2.55;;;18.60;43.70;;;;;;5053522;28;20037;-76
2020/12/19 04:19:35;;;;;;;3.72;1.85;;;18.60;43.70;;;;;;5055385;28;20021;-76
2020/12/19 04:22:01;;;;;;;2.00;1.13;;;18.60;43.80;;;;;;5056019;28;20021;-77
2020/12/19 04:24:26;;;;;;;6.25;3.53;;;18.60;43.80;;;;;;5055741;28;20492;-76
2020/12/19 04:26:52;;;;;;;5.95;2.42;;;18.60;43.90;;;;;;5073301;28;20086;-76
2020/12/19 04:29:17;;;;;;;3.75;2.13;;;18.60;43.90;;;;;;5073285;28;20028;-77
2020/12/19 04:31:43;;;;;;;1.00;0.82;;;18.60;43.90;;;;;;5055318;28;20545;-76
2020/12/19 04:34:09;;;;;;;6.10;3.83;;;18.60;43.90;;;;;;5073777;28;20549;-76
2020/12/19 04:36:37;;;;;;;1.92;1.30;;;18.60;43.90;;;;;;5054906;28;20035;-76
2020/12/19 04:39:03;;;;;;;3.85;2.15;;;18.60;43.90;;;;;;5055417;28;20116;-76
2020/12/19 04:41:29;;;;;;;1.65;1.08;;;18.60;44.00;;;;;;5055444;28;20071;-76
2020/12/19 04:43:54;;;;;;;7.03;3.35;;;18.50;43.90;;;;;;5054837;28;20044;-74
2020/12/19 04:46:21;;;;;;;4.93;1.25;;;18.50;44.00;;;;;;5042263;28;20111;-76
2020/12/19 04:48:46;;;;;;;4.50;2.50;;;18.60;44.00;;;;;;5035791;28;20029;-75
2020/12/19 04:51:18;;;;;;;2.13;1.17;;;18.50;44.00;;;;;;5035117;28;20052;-76
2020/12/19 04:53:43;;;;;;;2.72;1.33;;;18.60;44.00;;;;;;5035667;28;20029;-76
2020/12/19 04:56:09;;;;;;;6.60;3.22;;;18.60;44.10;;;;;;5039290;28;20025;-76
2020/12/19 04:58:34;;;;;;;7.57;3.83;;;18.50;44.00;;;;;;5035089;28;20068;-76
2020/12/19 05:01:00;;;;;;;0.35;0.35;;;18.60;44.00;;;;;;5035327;28;20037;-77
2020/12/19 05:03:25;;;;;;;3.42;1.20;;;18.60;44.10;;;;;;5072702;28;20028;-76
2020/12/19 05:05:51;;;;;;;1.85;1.17;;;18.60;44.20;;;;;;5053417;28;20041;-76
2020/12/19 05:08:29;;;;;;;6.22;1.30;;;18.60;44.30;;;;;;5073301;28;20037;-76
2020/12/19 05:10:54;;;;;;;3.92;1.38;;;18.60;44.30;;;;;;5055074;28;20032;-76
2020/12/19 05:13:23;;;;;;;3.40;1.50;;;18.50;44.40;;;;;;5071756;28;20170;-76
2020/12/19 05:15:50;;;;;;;2.05;1.25;;;18.50;44.50;;;;;;5072628;28;20030;-76
2020/12/19 05:18:15;;;;;;;3.40;1.48;;;18.50;44.60;;;;;;5054452;28;20116;-76
2020/12/19 05:20:41;;;;;;;1.92;1.35;;;18.50;44.60;;;;;;5054876;28;20602;-76
2020/12/19 05:23:07;;;;;;;2.92;1.52;;;18.50;44.70;;;;;;5072849;28;20035;-76
2020/12/19 05:25:33;;;;;;;1.90;1.50;;;18.50;44.80;;;;;;5038148;28;20025;-77
2020/12/19 05:27:58;;;;;;;2.58;1.80;;;18.50;44.80;;;;;;5054072;28;20032;-76
2020/12/19 05:30:24;;;;;;;1.55;1.30;;;18.50;44.90;;;;;;5054272;28;20086;-76
2020/12/19 05:32:51;;;;;;;2.15;1.48;;;18.50;45.00;;;;;;5071735;28;20049;-73
2020/12/19 05:35:18;;;;;;;1.83;1.20;;;18.50;45.00;;;;;;5052806;28;20017;-74
2020/12/19 05:37:43;;;;;;;3.50;1.50;;;18.50;45.00;;;;;;5037816;28;20037;-74
2020/12/19 05:40:12;;;;;;;3.10;1.70;;;18.50;45.00;;;;;;5050720;28;20078;-74
2020/12/19 05:42:41;;;;;;;4.07;1.50;;;18.40;45.00;;;;;;5037698;28;20041;-74
2020/12/19 05:45:17;;;;;;;3.20;1.58;;;18.40;45.10;;;;;;5072309;28;20025;-74
2020/12/19 05:47:43;;;;;;;4.03;1.77;;;18.40;45.10;;;;;;5054090;28;20495;-75
2020/12/19 05:50:08;;;;;;;3.55;1.90;;;18.40;45.80;;;;;;5054570;28;20021;-77
2020/12/19 05:52:36;;;;;;;4.15;1.35;;;18.40;45.30;;;;;;5072584;28;20024;-76
2020/12/19 05:55:05;;;;;;;3.33;1.80;;;18.40;45.30;;;;;;5054703;28;20480;-75
2020/12/19 05:57:30;;;;;;;2.67;1.50;;;18.40;45.30;;;;;;5038094;28;20445;-75
2020/12/19 05:59:56;;;;;;;2.47;1.40;;;18.40;45.30;;;;;;5037658;28;20069;-76
2020/12/19 06:02:22;;;;;;;2.15;1.30;;;18.40;45.40;;;;;;5037699;28;20033;-76
2020/12/19 06:04:48;;;;;;;2.25;1.60;;;18.40;45.50;;;;;;5054576;28;20077;-77
2020/12/19 06:07:13;;;;;;;3.50;1.80;;;18.40;45.40;;;;;;5038836;28;20473;-76
2020/12/19 06:09:41;;;;;;;1.90;1.40;;;18.40;45.50;;;;;;5054555;28;20125;-76
2020/12/19 06:12:08;;;;;;;4.57;1.75;;;18.40;45.40;;;;;;5037260;28;20033;-76
2020/12/19 06:14:39;;;;;;;4.40;1.20;;;18.40;45.40;;;;;;5037297;28;20128;-74
2020/12/19 06:17:11;;;;;;;1.50;1.40;;;18.40;45.40;;;;;;5036899;28;20047;-75
2020/12/19 06:19:41;;;;;;;2.42;1.50;;;18.40;45.40;;;;;;5054507;28;20074;-76
2020/12/19 06:22:06;;;;;;;2.03;1.25;;;18.40;46.20;;;;;;5041698;28;20028;-74
2020/12/19 06:24:45;;;;;;;2.20;1.40;;;18.40;45.60;;;;;;5054598;28;20418;-74
2020/12/19 06:27:22;;;;;;;1.85;1.30;;;18.40;45.60;;;;;;5034343;28;20037;-76
2020/12/19 06:29:48;;;;;;;2.20;1.42;;;18.40;45.60;;;;;;5051935;28;20035;-75
2020/12/19 06:32:20;;;;;;;2.75;1.42;;;18.40;45.60;;;;;;5033160;28;20516;-76
2020/12/19 06:35:08;;;;;;;2.42;1.60;;;18.40;45.60;;;;;;5034510;28;20477;-73
2020/12/19 06:37:43;;;;;;;3.97;1.42;;;18.40;45.60;;;;;;5035172;28;20045;-76
2020/12/19 06:40:19;;;;;;;4.07;1.40;;;18.40;45.60;;;;;;5060091;28;20507;-76
2020/12/19 06:42:45;;;;;;;1.35;1.02;;;18.50;45.60;;;;;;5054848;28;20392;-76
2020/12/19 06:45:27;;;;;;;3.40;1.02;;;18.50;45.60;;;;;;5055996;28;20037;-75
2020/12/19 06:47:53;;;;;;;2.38;1.33;;;18.60;45.50;;;;;;5075038;28;20021;-76
2020/12/19 06:50:19;;;;;;;1.20;0.98;;;18.70;45.50;;;;;;5045953;28;20051;-75
2020/12/19 06:52:57;;;;;;;2.17;1.40;;;18.80;45.40;;;;;;5057920;28;20028;-75
2020/12/19 06:55:24;;;;;;;4.25;1.10;;;18.80;45.40;;;;;;5057501;28;20077;-75
2020/12/19 06:57:57;;;;;;;1.95;1.17;;;18.80;45.30;;;;;;5057821;28;20019;-76
2020/12/19 07:00:30;;;;;;;2.53;1.17;;;18.90;45.30;;;;;;5057941;28;20163;-76
2020/12/19 07:03:00;;;;;;;1.38;1.10;;;19.00;45.20;;;;;;5057206;28;20025;-76
2020/12/19 07:05:30;;;;;;;2.25;1.20;;;19.10;45.10;;;;;;5055845;28;20116;-76
2020/12/19 07:08:15;;;;;;;2.42;1.17;;;19.10;45.00;;;;;;5033053;28;20033;-76
2020/12/19 07:10:41;;;;;;;1.25;1.00;;;19.20;45.10;;;;;;5037335;28;20021;-76
2020/12/19 07:13:06;;;;;;;1.58;1.20;;;19.20;45.00;;;;;;5052182;28;20407;-76
2020/12/19 07:15:44;;;;;;;2.33;1.20;;;19.20;45.00;;;;;;5074418;28;20070;-76
2020/12/19 07:18:28;;;;;;;1.35;0.80;;;19.20;44.90;;;;;;5071035;28;20399;-76
2020/12/19 07:21:04;;;;;;;2.40;1.02;;;19.30;44.90;;;;;;5055787;28;20149;-76
2020/12/19 07:23:31;;;;;;;1.52;0.90;;;19.30;44.80;;;;;;5040431;28;20119;-76
2020/12/19 07:25:57;;;;;;;2.40;1.02;;;19.30;44.80;;;;;;5056044;28;20033;-76
2020/12/19 07:28:28;;;;;;;1.35;0.68;;;19.30;44.90;;;;;;5074658;28;20036;-76
2020/12/19 07:30:54;;;;;;;1.85;1.20;;;19.40;44.90;;;;;;5056445;28;20047;-76
2020/12/19 07:33:20;;;;;;;3.83;1.35;;;19.40;44.80;;;;;;5073856;28;20048;-76
2020/12/19 07:35:45;;;;;;;1.55;1.10;;;19.40;44.80;;;;;;5054753;28;20518;-76
2020/12/19 07:38:11;;;;;;;1.25;0.82;;;19.40;44.90;;;;;;5056561;28;20036;-76
2020/12/19 07:40:36;;;;;;;5.82;1.13;;;19.40;44.80;;;;;;5056119;28;20064;-76
2020/12/19 07:43:03;;;;;;;1.48;1.20;;;19.40;44.80;;;;;;5055603;28;20032;-76
2020/12/19 07:45:28;;;;;;;1.73;1.13;;;19.40;44.80;;;;;;5055702;28;20031;-76
2020/12/19 07:47:54;;;;;;;1.58;1.38;;;19.40;44.90;;;;;;5074894;28;20028;-76
2020/12/19 07:50:27;;;;;;;2.10;1.38;;;19.40;44.90;;;;;;5056422;28;20024;-77
2020/12/19 07:53:03;;;;;;;3.60;1.10;;;19.40;44.90;;;;;;5056423;28;20023;-76
2020/12/19 07:55:33;;;;;;;2.40;1.40;;;19.40;44.90;;;;;;5056228;28;20166;-77
2020/12/19 07:57:59;;;;;;;2.03;1.30;;;19.40;44.90;;;;;;5045132;28;20052;-76
2020/12/19 08:00:25;;;;;;;1.38;1.00;;;19.40;44.90;;;;;;5068101;28;20019;-74
2020/12/19 08:02:51;;;;;;;1.85;0.80;;;19.40;44.90;;;;;;5056047;28;20099;-75
2020/12/19 08:05:20;;;;;;;3.42;1.30;;;19.40;44.90;;;;;;5042370;28;20079;-75
2020/12/19 08:07:49;;;;;;;2.38;1.15;;;19.40;45.00;;;;;;5054114;28;20057;-75
2020/12/19 08:10:18;;;;;;;2.80;0.75;;;19.40;45.00;;;;;;5019116;28;20072;-75
2020/12/19 08:12:44;;;;;;;2.15;1.60;;;19.40;45.00;;;;;;5043911;28;20047;-75
2020/12/19 08:15:10;;;;;;;4.03;1.08;;;19.40;45.00;;;;;;5044274;28;20033;-74
2020/12/19 08:18:00;;;;;;;3.80;1.20;;;19.50;45.00;;;;;;5035989;28;20039;-75
2020/12/19 08:20:30;;;;;;;1.67;1.13;;;19.50;45.00;;;;;;5025959;28;20567;-75
2020/12/19 08:22:56;;;;;;;1.42;1.00;;;19.40;45.00;;;;;;5054601;28;20024;-75
2020/12/19 08:25:22;;;;;;;1.52;0.88;;;19.50;45.10;;;;;;5049921;28;20035;-74
2020/12/19 08:27:47;;;;;;;2.53;1.30;;;19.50;45.10;;;;;;5055549;28;20399;-74
2020/12/19 08:30:18;;;;;;;0.82;0.82;;;19.50;45.10;;;;;;5055523;28;20024;-74
2020/12/19 08:33:00;;;;;;;2.22;1.30;;;19.50;45.10;;;;;;5054136;28;20028;-74
2020/12/19 08:35:27;;;;;;;2.17;0.90;;;19.50;45.00;;;;;;5047151;28;20052;-74
2020/12/19 08:38:26;;;;;;;3.08;1.00;;;19.50;45.00;;;;;;5035558;28;20017;-74
2020/12/19 08:40:52;;;;;;;3.53;1.10;;;19.60;44.90;;;;;;4972596;28;20043;-74
2020/12/19 08:43:18;;;;;;;1.85;0.70;;;19.60;45.00;;;;;;4956594;28;20042;-74
2020/12/19 08:45:45;;;;;;;1.65;0.98;;;19.60;45.00;;;;;;4955792;28;20413;-74
2020/12/19 08:48:21;;;;;;;2.17;1.05;;;19.60;45.00;;;;;;4955841;28;20042;-74
2020/12/19 08:50:48;;;;;;;0.90;0.90;;;19.70;45.00;;;;;;4972608;28;20043;-74
2020/12/19 08:53:18;;;;;;;0.80;0.80;;;19.70;45.00;;;;;;4956564;28;20027;-73
2020/12/19 08:55:44;;;;;;;2.83;1.00;;;19.70;45.00;;;;;;4956394;28;20047;-73
2020/12/19 08:58:30;;;;;;;2.17;1.10;;;19.70;44.90;;;;;;4973568;28;20040;-73
2020/12/19 09:01:00;;;;;;;;;;;19.70;44.90;;;;;;4987508;28;20050;-73
2020/12/19 09:03:33;;;;;;;1.85;0.88;;;19.70;44.90;;;;;;4975025;28;19929;-73
2020/12/19 09:06:03;;;;;;;1.05;0.90;;;19.70;44.90;;;;;;4971013;28;20039;-73
2020/12/19 09:08:39;;;;;;;1.98;1.10;;;19.70;44.90;;;;;;4988059;28;20129;-73
2020/12/19 09:11:26;;;;;;;0.73;0.73;;;19.80;44.90;;;;;;4990662;28;20130;-73
2020/12/19 09:14:08;;;;;;;0.98;0.88;;;19.80;44.90;;;;;;4973777;28;20038;-73
2020/12/19 09:16:34;;;;;;;1.90;1.17;;;19.80;45.00;;;;;;4988321;28;20442;-73
2020/12/19 09:19:00;;;;;;;1.38;1.10;;;19.80;45.00;;;;;;5064850;28;20054;-74
2020/12/19 09:21:29;;;;;;;0.65;0.65;;;19.80;45.00;;;;;;5037538;28;20029;-74
2020/12/19 09:24:20;;;;;;;1.23;0.80;;;19.70;45.00;;;;;;5054275;28;20107;-74
2020/12/19 09:26:45;;;;;;;1.33;0.80;;;19.70;45.00;;;;;;5041238;28;20515;-76
2020/12/19 09:29:11;;;;;;;1.25;0.88;;;19.80;45.10;;;;;;5072444;28;20032;-75
2020/12/19 09:31:37;;;;;;;1.23;0.70;;;19.80;45.10;;;;;;5072031;28;20024;-75
2020/12/19 09:34:02;;;;;;;2.15;0.80;;;19.80;45.00;;;;;;5072365;28;20040;-75
2020/12/19 09:36:28;;;;;;;1.48;0.73;;;19.80;44.90;;;;;;5071738;28;20025;-75
2020/12/19 09:38:54;;;;;;;0.50;0.50;;;19.80;45.00;;;;;;5072758;28;20048;-75
2020/12/19 09:41:19;;;;;;;0.50;0.50;;;19.80;45.00;;;;;;5036704;28;20032;-75
2020/12/19 09:43:45;;;;;;;0.82;0.82;;;19.80;45.10;;;;;;5036995;28;20488;-75
2020/12/19 09:46:14;;;;;;;1.38;0.70;;;19.80;45.10;;;;;;5071571;28;20033;-76
2020/12/19 09:48:40;;;;;;;1.05;0.73;;;19.90;45.00;;;;;;5053877;28;20047;-75
2020/12/19 09:51:06;;;;;;;1.88;0.77;;;19.90;45.00;;;;;;5053521;28;20041;-75
2020/12/19 09:53:31;;;;;;;0.57;0.50;;;19.80;45.00;;;;;;5053090;28;20028;-75
2020/12/19 09:55:57;;;;;;;0.70;0.65;;;19.90;45.00;;;;;;5054177;28;20032;-75
2020/12/19 09:58:22;;;;;;;0.95;0.63;;;19.90;45.00;;;;;;5053457;28;20032;-75
2020/12/19 10:00:48;;;;;;;1.42;0.90;;;19.90;45.00;;;;;;5071889;28;20025;-74
2020/12/19 10:03:13;;;;;;;1.13;0.57;;;19.90;45.00;;;;;;5053453;28;20028;-74
2020/12/19 10:05:39;;;;;;;1.15;0.55;;;19.90;45.00;;;;;;5054052;28;20423;-74
2020/12/19 10:08:04;;;;;;;1.20;0.80;;;20.00;45.00;;;;;;5067725;28;20032;-74
2020/12/19 10:10:30;;;;;;;0.77;0.68;;;20.00;45.00;;;;;;5071566;28;20025;-74
2020/12/19 10:12:56;;;;;;;1.65;0.73;;;20.00;45.00;;;;;;5036958;28;20036;-73
2020/12/19 10:15:21;;;;;;;1.23;0.50;;;20.00;45.10;;;;;;5073434;28;20050;-73
2020/12/19 10:17:47;;;;;;;0.82;0.55;;;20.00;45.10;;;;;;5037118;28;20047;-74
2020/12/19 10:20:12;;;;;;;1.92;0.57;;;20.10;45.10;;;;;;5057708;28;20032;-74
2020/12/19 10:22:53;;;;;;;1.23;0.70;;;20.00;45.00;;;;;;5057112;28;20032;-74
2020/12/19 10:25:19;;;;;;;0.30;0.30;;;20.00;45.00;;;;;;5040572;28;20107;-74
2020/12/19 10:27:45;;;;;;;0.80;0.80;;;20.10;45.00;;;;;;5057251;28;20070;-74
2020/12/19 10:30:10;;;;;;;0.98;0.68;;;20.10;45.00;;;;;;5057809;28;20107;-74
2020/12/19 10:32:36;;;;;;;0.60;0.50;;;20.10;45.00;;;;;;5057511;28;20041;-73
2020/12/19 10:35:06;;;;;;;0.52;0.52;;;20.10;45.10;;;;;;5057660;28;20492;-73
2020/12/19 10:37:34;;;;;;;0.90;0.75;;;20.10;45.00;;;;;;5073943;28;20030;-73
2020/12/19 10:40:00;;;;;;;0.63;0.50;;;20.10;45.10;;;;;;5040903;28;20249;-72
2020/12/19 10:42:25;;;;;;;1.98;0.70;;;20.10;45.00;;;;;;5087044;28;20145;-72
2020/12/19 10:44:51;;;;;;;1.10;0.80;;;20.20;45.00;;;;;;5077803;28;20027;-72
2020/12/19 10:47:17;;;;;;;2.25;0.60;;;20.20;45.00;;;;;;5075284;28;20403;-73
2020/12/19 10:49:42;;;;;;;1.52;0.60;;;20.20;45.00;;;;;;5075021;28;20044;-73
2020/12/19 10:52:08;;;;;;;0.40;0.40;;;20.30;44.90;;;;;;5075290;28;20108;-72
2020/12/19 10:54:33;;;;;;;0.43;0.43;;;20.30;44.90;;;;;;5043916;28;20535;-73
2020/12/19 10:57:00;;;;;;;0.88;0.50;;;20.40;44.90;;;;;;5055499;28;20023;-74
2020/12/19 10:59:26;;;;;;;0.60;0.52;;;20.40;44.80;;;;;;5056848;28;20028;-75
2020/12/19 11:01:52;;;;;;;0.60;0.52;;;20.40;44.60;;;;;;5046445;28;20450;-77
2020/12/19 11:04:17;;;;;;;1.15;0.60;;;20.40;44.70;;;;;;5074629;28;20032;-77
2020/12/19 11:06:43;;;;;;;1.05;0.77;;;20.50;44.70;;;;;;5074246;28;20515;-76
2020/12/19 11:09:08;;;;;;;2.90;0.80;;;20.50;44.70;;;;;;5056314;28;20497;-78
2020/12/19 11:11:34;;;;;;;2.25;0.60;;;20.50;44.60;;;;;;5056682;28;20028;-77
2020/12/19 11:13:59;;;;;;;2.15;0.85;;;20.50;44.70;;;;;;5074439;28;20103;-78
2020/12/19 11:16:29;;;;;;;1.85;0.82;;;20.50;44.70;;;;;;5055875;28;20041;-77
2020/12/19 11:18:55;;;;;;;1.98;0.82;;;20.50;44.80;;;;;;5056476;28;20492;-76
2020/12/19 11:21:21;;;;;;;1.48;0.73;;;20.50;44.90;;;;;;5056076;28;20052;-75
2020/12/19 11:23:46;;;;;;;1.15;0.47;;;20.50;44.90;;;;;;5055863;28;20600;-75
2020/12/19 11:26:12;;;;;;;3.65;1.13;;;20.50;44.80;;;;;;5055612;28;20063;-75
2020/12/19 11:28:38;;;;;;;2.67;0.88;;;20.50;45.00;;;;;;5054928;28;20045;-75
2020/12/19 11:31:07;;;;;;;0.63;0.63;;;20.50;45.70;;;;;;5052861;28;20032;-73
2020/12/19 11:33:33;;;;;;;2.42;0.80;;;20.50;45.20;;;;;;5073128;28;20105;-73
2020/12/19 11:35:59;;;;;;;1.02;0.45;;;20.50;45.30;;;;;;5073535;28;20427;-74
2020/12/19 11:38:25;;;;;;;0.70;0.70;;;20.50;45.30;;;;;;5073530;28;20025;-73
2020/12/19 11:40:51;;;;;;;2.70;0.50;;;20.50;45.30;;;;;;5055268;28;20089;-73
2020/12/19 11:43:16;;;;;;;0.63;0.45;;;20.50;45.40;;;;;;5073589;28;20017;-72
2020/12/19 11:45:42;;;;;;;1.83;0.68;;;20.60;45.40;;;;;;5073650;28;20031;-73
2020/12/19 11:48:07;;;;;;;1.20;0.52;;;20.60;45.30;;;;;;5038490;28;20045;-73
2020/12/19 11:50:33;;;;;;;2.00;0.50;;;20.60;45.30;;;;;;5039878;28;20116;-73
2020/12/19 11:52:58;;;;;;;0.55;0.52;;;20.60;45.30;;;;;;5065848;28;20036;-73
2020/12/19 11:55:24;;;;;;;0.70;0.65;;;20.70;45.40;;;;;;5072660;28;20484;-74
2020/12/19 11:57:49;;;;;;;1.40;0.80;;;20.60;45.30;;;;;;5072610;28;20408;-73
2020/12/19 12:00:15;;;;;;;1.35;0.90;;;20.60;45.40;;;;;;5053684;28;20447;-72
2020/12/19 12:02:40;;;;;;;2.22;0.60;;;20.60;45.50;;;;;;5054955;28;20032;-73
2020/12/19 12:05:06;;;;;;;1.15;0.80;;;20.60;45.50;;;;;;5070635;28;20028;-74
2020/12/19 12:07:32;;;;;;;2.60;0.80;;;20.60;45.50;;;;;;5055144;28;20060;-74
2020/12/19 12:09:57;;;;;;;1.58;0.85;;;20.60;46.20;;;;;;5071465;28;20087;-74
2020/12/19 12:12:23;;;;;;;2.83;0.77;;;20.60;45.70;;;;;;5057289;28;20033;-73
2020/12/19 12:14:48;;;;;;;1.02;0.60;;;20.60;45.60;;;;;;5039159;28;20024;-73
2020/12/19 12:17:29;;;;;;;3.72;0.75;;;20.60;45.70;;;;;;5038231;28;20040;-73
2020/12/19 12:19:55;;;;;;;2.42;0.60;;;20.60;45.80;;;;;;5058408;28;20036;-73
2020/12/19 12:22:20;;;;;;;1.13;0.75;;;20.50;45.80;;;;;;5049317;28;20090;-74
2020/12/19 12:24:46;;;;;;;0.85;0.55;;;20.50;45.80;;;;;;5055710;28;20074;-74
2020/12/19 12:27:11;;;;;;;2.88;0.70;;;20.50;45.90;;;;;;5054368;28;20060;-74
2020/12/19 12:29:37;;;;;;;0.52;0.50;;;20.60;45.90;;;;;;5062087;28;20082;-74
2020/12/19 12:32:04;;;;;;;2.53;0.40;;;20.60;46.00;;;;;;5054482;28;20059;-75
2020/12/19 12:34:30;;;;;;;1.02;0.68;;;20.60;46.00;;;;;;5054561;28;20013;-75
2020/12/19 12:36:58;;;;;;;1.65;0.50;;;20.60;46.00;;;;;;5053195;28;20170;-74
2020/12/19 12:39:46;;;;;;;1.55;0.63;;;20.60;46.10;;;;;;5072304;28;20031;-74
2020/12/19 12:42:12;;;;;;;0.98;0.73;;;20.60;46.20;;;;;;5064025;28;20154;-74
2020/12/19 12:44:37;;;;;;;0.65;0.50;;;20.60;46.20;;;;;;5049456;28;20045;-75
2020/12/19 12:47:04;;;;;;;1.48;0.52;;;20.60;46.20;;;;;;5072577;28;20064;-75
2020/12/19 12:49:30;;;;;;;1.65;0.60;;;20.60;46.30;;;;;;5054384;28;20044;-75